Time;durP1;ratioP1;P1;durP2;ratioP2;P2;SDS_P1;SDS_P2;PMS_P1;PMS_P2;Temp;Humidity;BMP_temperature;BMP_pressure;BME280_temperature;BME280_humidity;BME280_pressure;Samples;Min_cycle;Max_cycle;Signal;HPM_P1;HPM_P2
2021/01/13 00:01:37;;;;;;;14.60;8.63;;;1.00;99.90;;;;;;6175941;23;20012;-82
2021/01/13 00:04:02;;;;;;;16.30;10.05;;;1.00;99.90;;;;;;6190328;23;20000;-82
2021/01/13 00:06:28;;;;;;;13.48;9.20;;;0.90;99.90;;;;;;6164105;23;20005;-82
2021/01/13 00:08:54;;;;;;;12.38;9.65;;;0.80;99.90;;;;;;6189904;23;20487;-81
2021/01/13 00:11:19;;;;;;;14.48;8.98;;;0.90;99.90;;;;;;6189823;23;20067;-81
2021/01/13 00:13:45;;;;;;;10.60;8.30;;;0.90;99.90;;;;;;6188925;23;19997;-82
2021/01/13 00:16:14;;;;;;;15.23;9.10;;;0.90;99.90;;;;;;6164811;23;20276;-82
2021/01/13 00:18:41;;;;;;;12.25;8.98;;;0.90;99.90;;;;;;6189857;23;20075;-81
2021/01/13 00:21:19;;;;;;;12.20;9.05;;;0.90;99.90;;;;;;6164770;23;20005;-81
2021/01/13 00:23:48;;;;;;;11.80;8.73;;;0.80;99.90;;;;;;6164257;23;20048;-81
2021/01/13 00:26:21;;;;;;;12.60;8.98;;;0.70;99.90;;;;;;6191363;23;20011;-81
2021/01/13 00:28:51;;;;;;;12.27;8.90;;;0.70;99.90;;;;;;6191161;23;20001;-82
2021/01/13 00:31:17;;;;;;;12.50;8.77;;;0.60;99.90;;;;;;6191838;23;19993;-82
2021/01/13 00:33:47;;;;;;;15.85;9.15;;;0.60;99.90;;;;;;6168971;23;20001;-82
2021/01/13 00:36:23;;;;;;;18.92;10.68;;;0.50;99.90;;;;;;6192281;23;20521;-82
2021/01/13 00:38:49;;;;;;;17.38;10.13;;;0.40;99.90;;;;;;6163718;23;636910;-82
2021/01/13 00:41:15;;;;;;;19.63;10.75;;;0.40;99.90;;;;;;6192717;23;20007;-82
2021/01/13 00:43:41;;;;;;;18.23;11.50;;;0.40;99.90;;;;;;6165525;23;20084;-82
2021/01/13 00:46:06;;;;;;;21.73;12.23;;;0.30;99.90;;;;;;6177366;23;20001;-82
2021/01/13 00:48:32;;;;;;;17.42;11.57;;;0.30;99.90;;;;;;6201298;23;20008;-82
2021/01/13 00:50:58;;;;;;;24.20;13.63;;;0.30;99.90;;;;;;6184704;23;20005;-81
2021/01/13 00:53:24;;;;;;;19.90;12.48;;;0.30;99.90;;;;;;6203727;23;20005;-82
2021/01/13 00:55:49;;;;;;;21.27;12.13;;;0.30;99.90;;;;;;6175801;23;19996;-82
2021/01/13 00:58:15;;;;;;;20.98;12.13;;;0.30;99.90;;;;;;6208384;23;20012;-80
2021/01/13 01:00:41;;;;;;;20.38;12.70;;;0.30;99.90;;;;;;6192269;23;20005;-82
2021/01/13 01:03:07;;;;;;;23.55;14.00;;;0.30;99.90;;;;;;6191030;23;20005;-82
2021/01/13 01:05:32;;;;;;;31.02;15.48;;;0.30;99.90;;;;;;6190375;23;20016;-82
2021/01/13 01:07:58;;;;;;;18.95;11.63;;;0.20;99.90;;;;;;6190427;23;20013;-82
2021/01/13 01:10:30;;;;;;;21.60;11.50;;;0.20;99.90;;;;;;6192089;23;20069;-82
2021/01/13 01:12:56;;;;;;;18.25;11.77;;;0.30;99.90;;;;;;6190200;23;20358;-82
2021/01/13 01:15:22;;;;;;;22.85;12.73;;;0.30;99.90;;;;;;6190487;23;20460;-82
2021/01/13 01:17:47;;;;;;;34.40;15.32;;;0.20;99.90;;;;;;6165836;23;20005;-82
2021/01/13 01:20:14;;;;;;;44.08;17.02;;;0.20;99.90;;;;;;6190276;23;20001;-82
2021/01/13 01:22:53;;;;;;;23.65;12.38;;;0.10;99.90;;;;;;6164331;23;20087;-82
2021/01/13 01:25:20;;;;;;;22.15;12.25;;;0.20;99.90;;;;;;6168724;23;20309;-82
2021/01/13 01:27:56;;;;;;;20.33;11.38;;;0.20;99.90;;;;;;6191958;23;20028;-82
2021/01/13 01:30:23;;;;;;;22.33;12.20;;;0.30;99.90;;;;;;6166892;23;20001;-82
2021/01/13 01:32:49;;;;;;;26.60;12.48;;;0.20;99.90;;;;;;6192367;23;20001;-82
2021/01/13 01:35:15;;;;;;;26.33;12.88;;;0.20;99.90;;;;;;6192383;23;20001;-82
2021/01/13 01:37:42;;;;;;;28.08;13.63;;;0.20;99.90;;;;;;6167954;23;20009;-82
2021/01/13 01:40:13;;;;;;;19.02;10.82;;;0.10;99.90;;;;;;6165975;23;20017;-82
2021/01/13 01:42:50;;;;;;;24.83;12.85;;;0.10;99.90;;;;;;6192362;23;20024;-82
2021/01/13 01:45:28;;;;;;;22.50;11.75;;;0.20;99.90;;;;;;6192436;23;20086;-83
2021/01/13 01:48:00;;;;;;;36.38;15.60;;;0.10;99.90;;;;;;6192449;23;20346;-82
2021/01/13 01:50:46;;;;;;;39.97;15.90;;;0.10;99.90;;;;;;6193360;23;19997;-82
2021/01/13 01:53:17;;;;;;;29.13;13.18;;;0.00;99.90;;;;;;6192518;23;20060;-82
2021/01/13 01:55:49;;;;;;;22.13;11.20;;;0.10;99.90;;;;;;6193562;23;20029;-82
2021/01/13 01:58:23;;;;;;;24.05;11.98;;;0.00;99.90;;;;;;6167444;23;20001;-83
2021/01/13 02:00:53;;;;;;;23.80;10.38;;;0.00;99.90;;;;;;6165805;23;20047;-84
2021/01/13 02:03:28;;;;;;;29.15;12.80;;;0.00;99.90;;;;;;6192797;23;20075;-83
2021/01/13 02:05:58;;;;;;;29.95;10.55;;;0.10;99.90;;;;;;6193873;23;20001;-84
2021/01/13 02:08:25;;;;;;;22.98;12.65;;;0.00;99.90;;;;;;6166761;23;20001;-83
2021/01/13 02:10:51;;;;;;;21.33;10.45;;;0.00;99.90;;;;;;6193430;23;20001;-83
2021/01/13 02:13:21;;;;;;;22.05;10.63;;;0.00;99.90;;;;;;6204464;23;19997;-82
2021/01/13 02:15:49;;;;;;;19.45;10.20;;;0.00;99.90;;;;;;6211496;23;20009;-83
2021/01/13 02:18:19;;;;;;;18.30;9.88;;;0.00;99.90;;;;;;6168249;23;20103;-85
2021/01/13 02:20:51;;;;;;;17.75;9.77;;;0.00;99.90;;;;;;6167111;23;20033;-85
2021/01/13 02:23:34;;;;;;;15.52;8.32;;;-0.10;99.90;;;;;;6179516;23;20085;-84
2021/01/13 02:26:24;;;;;;;18.50;9.43;;;-0.10;99.90;;;;;;6209595;23;20005;-84
2021/01/13 02:28:56;;;;;;;13.15;7.22;;;-0.10;99.90;;;;;;6205544;23;19993;-86
2021/01/13 02:31:28;;;;;;;23.70;9.32;;;-0.10;99.90;;;;;;6192419;23;20028;-85
2021/01/13 02:34:02;;;;;;;18.92;9.13;;;-0.10;99.90;;;;;;6205373;23;20072;-84
2021/01/13 02:36:34;;;;;;;20.48;9.25;;;-0.20;99.90;;;;;;6177824;23;20001;-85
2021/01/13 02:39:03;;;;;;;27.42;9.73;;;-0.20;99.90;;;;;;6179195;23;20013;-84
2021/01/13 02:41:30;;;;;;;22.65;9.27;;;-0.20;99.90;;;;;;6177335;23;20013;-85
2021/01/13 02:43:58;;;;;;;15.95;8.30;;;-0.30;99.90;;;;;;6196866;23;20018;-85
2021/01/13 02:46:57;;;;;;;18.23;8.13;;;-0.30;99.90;;;;;;6170724;23;20009;-85
2021/01/13 02:49:32;;;;;;;22.88;8.80;;;-0.20;99.90;;;;;;6167859;23;20088;-84
2021/01/13 02:52:00;;;;;;;17.08;8.07;;;-0.30;99.90;;;;;;6166461;23;20001;-85
2021/01/13 02:54:32;;;;;;;18.90;8.65;;;-0.30;99.90;;;;;;6194799;23;20044;-85
2021/01/13 02:57:17;;;;;;;18.93;8.80;;;-0.30;99.90;;;;;;6193059;23;20080;-86
2021/01/13 02:59:45;;;;;;;17.58;9.88;;;-0.30;99.90;;;;;;6168214;23;20232;-85
2021/01/13 03:02:11;;;;;;;18.20;9.02;;;-0.30;99.90;;;;;;6192774;23;20449;-85
2021/01/13 03:04:39;;;;;;;20.05;7.97;;;-0.30;99.90;;;;;;6192803;23;20559;-85
2021/01/13 03:07:15;;;;;;;24.55;9.77;;;-0.30;99.90;;;;;;6193308;23;20057;-85
2021/01/13 03:09:48;;;;;;;19.05;9.23;;;-0.30;99.90;;;;;;6206963;23;19997;-84
2021/01/13 03:12:24;;;;;;;23.92;10.02;;;-0.40;99.90;;;;;;6209572;23;19989;-85
2021/01/13 03:14:54;;;;;;;24.77;9.15;;;-0.40;99.90;;;;;;6177624;23;20368;-84
2021/01/13 03:17:29;;;;;;;16.52;8.70;;;-0.40;99.90;;;;;;6178950;23;20025;-85
2021/01/13 03:20:10;;;;;;;28.42;10.43;;;-0.50;99.90;;;;;;6176638;23;20001;-84
2021/01/13 03:22:43;;;;;;;21.52;8.80;;;-0.50;99.90;;;;;;6178028;23;20001;-85
2021/01/13 03:25:11;;;;;;;24.13;10.43;;;-0.50;99.90;;;;;;6171131;23;20290;-85
2021/01/13 03:27:43;;;;;;;25.02;10.05;;;-0.50;99.90;;;;;;6168711;23;20009;-85
2021/01/13 03:30:11;;;;;;;24.30;10.55;;;-0.50;99.90;;;;;;6166681;23;20005;-85
2021/01/13 03:33:01;;;;;;;26.23;10.05;;;-0.50;99.90;;;;;;6191326;23;20063;-83
2021/01/13 03:43:22;;;;;;;18.77;8.60;;;-0.50;99.90;;;;;;6221145;22;20479;-85
2021/01/13 03:45:51;;;;;;;24.20;9.45;;;-0.50;99.90;;;;;;6219993;23;20001;-85
2021/01/13 03:48:41;;;;;;;21.33;10.05;;;-0.50;99.90;;;;;;6192665;23;20016;-85
2021/01/13 03:51:24;;;;;;;25.92;9.95;;;-0.50;99.90;;;;;;6192994;23;20486;-84
2021/01/13 03:53:51;;;;;;;21.13;9.90;;;-0.50;99.90;;;;;;6193741;23;20024;-85
2021/01/13 03:56:55;;;;;;;20.23;9.60;;;-0.50;99.90;;;;;;6204154;23;20004;-85
2021/01/13 03:59:37;;;;;;;24.88;10.35;;;-0.60;99.90;;;;;;6222142;23;20039;-85
2021/01/13 04:02:04;;;;;;;22.25;10.13;;;-0.60;99.90;;;;;;6197932;23;19992;-85
2021/01/13 04:05:28;;;;;;;25.20;10.63;;;-0.60;99.90;;;;;;6196083;23;20024;-85
2021/01/13 04:07:56;;;;;;;23.00;10.02;;;-0.50;99.90;;;;;;6144011;23;20357;-85
2021/01/13 04:10:23;;;;;;;19.13;9.98;;;-0.60;99.90;;;;;;6180862;23;20009;-85
2021/01/13 04:13:01;;;;;;;35.90;10.25;;;-0.60;99.90;;;;;;6192074;23;20452;-85
2021/01/13 04:15:35;;;;;;;24.23;11.00;;;-0.60;99.90;;;;;;6219198;23;20005;-85
2021/01/13 04:18:04;;;;;;;22.80;9.70;;;-0.60;99.90;;;;;;6193871;23;20027;-85
2021/01/13 04:20:30;;;;;;;20.80;9.63;;;-0.50;99.90;;;;;;6194795;23;20000;-85
2021/01/13 04:22:56;;;;;;;20.95;9.77;;;-0.40;99.90;;;;;;6194388;23;20005;-85
2021/01/13 04:25:22;;;;;;;19.42;9.52;;;-0.40;99.90;;;;;;6196227;23;20367;-85
2021/01/13 04:27:48;;;;;;;16.52;9.25;;;-0.30;99.90;;;;;;6222743;23;20008;-84
2021/01/13 04:30:15;;;;;;;18.30;9.32;;;-0.20;99.90;;;;;;6197553;23;20011;-84
2021/01/13 04:32:41;;;;;;;20.63;9.55;;;-0.20;99.90;;;;;;6196972;23;20092;-84
2021/01/13 04:35:07;;;;;;;18.40;9.82;;;-0.30;99.90;;;;;;6196110;23;20000;-85
2021/01/13 04:37:35;;;;;;;28.42;10.57;;;-0.30;99.90;;;;;;6196495;23;20004;-85
2021/01/13 04:40:26;;;;;;;21.90;8.88;;;-0.30;99.90;;;;;;6223176;23;20011;-84
2021/01/13 04:43:11;;;;;;;19.02;8.88;;;-0.30;99.90;;;;;;6196216;23;20004;-84
2021/01/13 04:45:47;;;;;;;23.77;10.48;;;-0.30;99.90;;;;;;6223505;23;20000;-84
2021/01/13 04:48:18;;;;;;;24.95;10.43;;;-0.20;99.90;;;;;;6210250;23;20034;-84
2021/01/13 04:50:50;;;;;;;27.38;11.57;;;-0.30;99.90;;;;;;6213676;23;19988;-84
2021/01/13 04:53:21;;;;;;;26.65;10.30;;;-0.20;99.90;;;;;;6207607;23;19996;-84
2021/01/13 04:55:50;;;;;;;21.83;10.02;;;-0.20;99.90;;;;;;6226821;23;20072;-84
2021/01/13 04:59:07;;;;;;;20.45;9.77;;;-0.20;99.90;;;;;;6199142;23;20005;-84
2021/01/13 05:01:42;;;;;;;18.73;9.55;;;-0.20;99.90;;;;;;6150320;23;20082;-84
2021/01/13 05:04:35;;;;;;;19.88;9.07;;;-0.20;99.90;;;;;;6198199;23;20001;-83
2021/01/13 05:07:03;;;;;;;23.25;9.05;;;-0.20;99.90;;;;;;6225958;23;20001;-83
2021/01/13 05:09:43;;;;;;;18.02;8.75;;;-0.10;99.90;;;;;;6203237;23;20005;-82
2021/01/13 05:12:10;;;;;;;20.33;9.30;;;-0.20;99.90;;;;;;6215823;23;20080;-84
2021/01/13 05:14:44;;;;;;;16.92;8.35;;;-0.20;99.90;;;;;;6215954;22;19993;-84
2021/01/13 05:17:34;;;;;;;19.10;8.75;;;-0.20;99.90;;;;;;6215983;22;19993;-85
2021/01/13 05:20:06;;;;;;;14.68;8.48;;;-0.20;99.90;;;;;;6211402;23;20025;-86
2021/01/13 05:22:33;;;;;;;15.48;7.80;;;-0.20;99.90;;;;;;6201370;23;20000;-86
2021/01/13 05:25:03;;;;;;;25.92;9.27;;;-0.20;99.90;;;;;;6198985;23;20001;-85
2021/01/13 05:28:10;;;;;;;18.00;8.30;;;-0.20;99.90;;;;;;6198555;23;20048;-85
2021/01/13 05:30:41;;;;;;;14.95;8.00;;;-0.20;99.90;;;;;;6187678;23;20005;-85
2021/01/13 05:33:16;;;;;;;19.67;9.10;;;-0.20;99.90;;;;;;6211882;23;19997;-85
2021/01/13 05:35:45;;;;;;;23.13;8.95;;;-0.20;99.90;;;;;;6207402;23;20008;-85
2021/01/13 05:38:10;;;;;;;21.17;8.45;;;-0.20;99.90;;;;;;6233553;22;20012;-84
2021/01/13 05:40:44;;;;;;;38.58;13.38;;;-0.20;99.90;;;;;;6214589;23;20065;-85
2021/01/13 05:43:11;;;;;;;18.02;8.15;;;-0.30;99.90;;;;;;6239591;23;19989;-84
2021/01/13 05:45:39;;;;;;;19.10;9.07;;;-0.30;99.90;;;;;;6240285;23;20005;-84
2021/01/13 05:48:23;;;;;;;14.43;7.60;;;-0.30;99.90;;;;;;6240059;23;19989;-84
2021/01/13 05:50:54;;;;;;;20.50;10.13;;;-0.30;99.90;;;;;;6214679;23;20000;-84
2021/01/13 05:53:24;;;;;;;16.52;7.85;;;-0.30;99.90;;;;;;6211801;23;20039;-85
2021/01/13 05:55:51;;;;;;;21.80;8.65;;;-0.30;99.90;;;;;;6205039;23;20068;-85
2021/01/13 05:58:27;;;;;;;14.13;7.70;;;-0.30;99.90;;;;;;6230663;23;20378;-85
2021/01/13 06:00:58;;;;;;;21.00;8.93;;;-0.20;99.90;;;;;;6201676;23;20368;-85
2021/01/13 06:03:27;;;;;;;16.65;8.65;;;-0.10;99.90;;;;;;6201263;23;20389;-85
2021/01/13 06:05:58;;;;;;;17.80;8.13;;;-0.10;99.90;;;;;;6201865;23;20007;-85
2021/01/13 06:08:26;;;;;;;17.92;7.45;;;-0.20;99.90;;;;;;6203228;23;20005;-85
2021/01/13 06:10:56;;;;;;;17.15;8.27;;;-0.20;99.90;;;;;;6201201;23;20495;-85
2021/01/13 06:13:31;;;;;;;17.88;7.57;;;-0.20;99.90;;;;;;6202806;23;20001;-85
2021/01/13 06:16:05;;;;;;;21.05;8.85;;;-0.30;99.90;;;;;;6203162;23;20134;-85
2021/01/13 06:18:34;;;;;;;19.17;8.73;;;-0.20;99.90;;;;;;6227822;23;20083;-85
2021/01/13 06:21:11;;;;;;;15.02;7.55;;;-0.20;99.90;;;;;;6202002;23;20077;-85
2021/01/13 06:23:50;;;;;;;16.38;8.18;;;-0.30;99.90;;;;;;6204969;23;20000;-85
2021/01/13 06:26:18;;;;;;;16.00;7.78;;;-0.30;99.90;;;;;;6201697;23;20383;-85
2021/01/13 06:28:50;;;;;;;21.67;7.70;;;-0.40;99.90;;;;;;6202698;23;20004;-85
2021/01/13 06:31:22;;;;;;;13.83;7.20;;;-0.40;99.90;;;;;;6227586;23;20011;-85
2021/01/13 06:34:17;;;;;;;15.95;8.48;;;-0.40;99.90;;;;;;6205704;23;20011;-84
2021/01/13 06:37:12;;;;;;;17.55;7.78;;;-0.30;99.90;;;;;;6171929;23;20036;-85
2021/01/13 06:39:40;;;;;;;16.30;8.40;;;-0.30;99.90;;;;;;6205907;23;20004;-85
2021/01/13 06:42:05;;;;;;;17.90;7.50;;;-0.40;99.90;;;;;;6204671;23;20019;-86
2021/01/13 06:44:46;;;;;;;20.55;9.20;;;-0.40;99.90;;;;;;6216886;23;20008;-84
2021/01/13 06:47:11;;;;;;;14.07;7.80;;;-0.40;99.90;;;;;;6216912;22;20080;-84
2021/01/13 06:49:37;;;;;;;21.58;9.65;;;-0.40;99.90;;;;;;6216952;22;19993;-84
2021/01/13 06:52:07;;;;;;;15.80;8.18;;;-0.50;99.90;;;;;;6215817;23;20007;-84
2021/01/13 06:54:45;;;;;;;16.15;8.10;;;-0.50;99.90;;;;;;6216661;23;20062;-84
2021/01/13 06:57:12;;;;;;;22.98;9.00;;;-0.50;99.90;;;;;;6216586;22;20035;-84
2021/01/13 06:59:38;;;;;;;18.15;8.13;;;-0.50;99.90;;;;;;6209073;23;20009;-84
2021/01/13 07:02:04;;;;;;;24.02;9.70;;;-0.50;99.90;;;;;;6226192;23;20060;-85
2021/01/13 07:04:44;;;;;;;18.77;8.88;;;-0.50;99.90;;;;;;6201473;23;20020;-84
2021/01/13 07:07:12;;;;;;;23.17;9.07;;;-0.50;99.90;;;;;;6230924;23;20298;-83
2021/01/13 07:09:45;;;;;;;18.65;8.65;;;-0.50;99.90;;;;;;6198942;23;20071;-84
2021/01/13 07:12:26;;;;;;;17.30;8.10;;;-0.40;99.90;;;;;;6198210;23;20033;-83
2021/01/13 07:14:55;;;;;;;20.20;9.82;;;-0.40;99.90;;;;;;6192934;23;20384;-84
2021/01/13 07:17:23;;;;;;;17.52;8.57;;;-0.40;99.90;;;;;;6193092;23;20091;-84
2021/01/13 07:19:57;;;;;;;18.10;7.78;;;-0.30;99.90;;;;;;6194070;23;20039;-85
2021/01/13 07:22:25;;;;;;;15.02;8.40;;;-0.30;99.90;;;;;;6195266;23;20090;-86
2021/01/13 07:24:52;;;;;;;20.80;9.18;;;-0.30;99.90;;;;;;6229680;23;20001;-81
2021/01/13 07:27:18;;;;;;;15.98;8.00;;;-0.30;99.90;;;;;;6223601;23;20120;-85
2021/01/13 07:29:44;;;;;;;17.73;8.15;;;-0.20;99.90;;;;;;6222510;23;20000;-84
2021/01/13 07:32:11;;;;;;;18.20;7.65;;;-0.20;99.90;;;;;;6221729;23;20475;-80
2021/01/13 07:34:44;;;;;;;13.63;7.40;;;-0.20;99.90;;;;;;6221677;23;20005;-84
2021/01/13 07:37:21;;;;;;;15.52;6.90;;;-0.10;99.90;;;;;;6205893;23;20013;-84
2021/01/13 07:39:59;;;;;;;15.43;6.63;;;-0.10;99.90;;;;;;6226008;23;20001;-81
2021/01/13 07:42:37;;;;;;;15.02;7.82;;;-0.20;99.90;;;;;;6220150;23;20008;-78
2021/01/13 07:45:12;;;;;;;16.50;7.97;;;-0.20;99.90;;;;;;6226336;23;20011;-80
2021/01/13 07:47:46;;;;;;;22.08;8.07;;;-0.10;99.90;;;;;;6198956;23;20502;-81
2021/01/13 07:50:15;;;;;;;19.35;9.02;;;-0.10;99.90;;;;;;6204732;23;20015;-83
2021/01/13 07:52:49;;;;;;;18.58;9.02;;;0.00;99.90;;;;;;6205126;23;20096;-84
2021/01/13 07:55:23;;;;;;;27.45;9.95;;;0.00;99.90;;;;;;6228901;23;19984;-84
2021/01/13 07:57:50;;;;;;;18.45;8.63;;;0.00;99.90;;;;;;6230611;23;20428;-85
2021/01/13 08:00:32;;;;;;;16.02;9.00;;;0.00;99.90;;;;;;6206674;23;20013;-85
2021/01/13 08:03:26;;;;;;;24.38;9.23;;;0.00;99.90;;;;;;6203601;23;20336;-84
2021/01/13 08:06:28;;;;;;;42.03;22.58;;;0.10;99.90;;;;;;6211551;22;20009;-84
2021/01/13 08:09:10;;;;;;;17.45;8.50;;;0.20;99.90;;;;;;6241150;23;19996;-84
2021/01/13 08:12:05;;;;;;;27.00;13.18;;;0.20;99.90;;;;;;6213616;23;20005;-83
2021/01/13 08:14:40;;;;;;;18.23;8.38;;;0.30;99.90;;;;;;6211412;23;20072;-83
2021/01/13 08:17:53;;;;;;;35.88;16.42;;;0.40;99.90;;;;;;6214311;23;20023;-83
2021/01/13 08:27:56;;;;;;;17.63;7.93;;;0.40;99.90;;;;;;6139784;23;20030;-83
2021/01/13 08:30:27;;;;;;;18.55;8.55;;;0.40;99.90;;;;;;6111634;23;20002;-84
2021/01/13 08:32:55;;;;;;;20.33;8.18;;;0.40;99.90;;;;;;6220278;23;20009;-84
2021/01/13 08:35:34;;;;;;;15.80;7.38;;;0.30;99.90;;;;;;6200063;23;20001;-81
2021/01/13 08:38:10;;;;;;;19.05;7.88;;;0.40;99.90;;;;;;6194791;23;20012;-81
2021/01/13 08:40:40;;;;;;;18.98;7.70;;;0.50;99.90;;;;;;6222879;23;20437;-83
2021/01/13 08:43:14;;;;;;;21.40;8.18;;;0.70;99.90;;;;;;6224449;23;20020;-84
2021/01/13 08:45:50;;;;;;;15.30;7.80;;;0.80;99.90;;;;;;6224934;23;20031;-83
2021/01/13 08:48:18;;;;;;;15.30;7.53;;;0.80;99.90;;;;;;6232095;23;20420;-83
2021/01/13 08:51:08;;;;;;;18.00;8.70;;;0.80;99.90;;;;;;6238235;23;20001;-82
2021/01/13 08:53:34;;;;;;;15.70;7.60;;;0.80;99.90;;;;;;6212850;23;20012;-83
2021/01/13 08:56:00;;;;;;;16.35;7.20;;;0.90;99.90;;;;;;6223099;23;20004;-83
2021/01/13 08:58:29;;;;;;;16.58;7.80;;;0.90;99.90;;;;;;6199025;23;20011;-83
2021/01/13 09:01:05;;;;;;;12.50;6.80;;;0.90;99.90;;;;;;6223966;23;20063;-83
2021/01/13 09:03:41;;;;;;;15.10;6.45;;;0.90;99.90;;;;;;6195916;23;20009;-82
2021/01/13 09:06:38;;;;;;;24.42;7.40;;;1.00;99.90;;;;;;6223707;23;20007;-82
2021/01/13 09:09:11;;;;;;;15.77;6.28;;;1.00;99.80;;;;;;6183270;23;20001;-83
2021/01/13 09:11:38;;;;;;;18.05;6.75;;;1.00;99.60;;;;;;6199506;23;20008;-83
2021/01/13 09:14:18;;;;;;;12.30;6.45;;;1.10;99.90;;;;;;6223441;23;20004;-82
2021/01/13 09:16:55;;;;;;;14.35;6.07;;;1.20;99.60;;;;;;6219864;23;20009;-83
2021/01/13 09:19:32;;;;;;;9.85;5.82;;;1.30;98.90;;;;;;6222445;23;20076;-83
2021/01/13 09:22:00;;;;;;;18.38;5.20;;;1.30;98.70;;;;;;6222574;23;20056;-82
2021/01/13 09:24:36;;;;;;;17.55;8.32;;;1.20;98.40;;;;;;6221100;23;20076;-83
2021/01/13 09:27:04;;;;;;;12.00;5.57;;;1.10;99.00;;;;;;6195722;23;20223;-85
2021/01/13 09:29:47;;;;;;;10.32;5.18;;;1.20;98.10;;;;;;6225344;23;20000;-82
2021/01/13 09:32:18;;;;;;;10.73;4.68;;;1.30;98.10;;;;;;6222968;23;20486;-83
2021/01/13 09:34:52;;;;;;;12.00;5.00;;;1.30;97.70;;;;;;6196363;23;20000;-83
2021/01/13 09:37:22;;;;;;;8.02;4.13;;;1.30;97.20;;;;;;6218933;22;20028;-80
2021/01/13 09:40:01;;;;;;;7.47;4.13;;;1.40;96.30;;;;;;6202552;23;20012;-81
2021/01/13 09:42:45;;;;;;;9.68;4.35;;;1.30;96.70;;;;;;6237227;23;20044;-82
2021/01/13 09:45:11;;;;;;;6.85;3.85;;;1.30;96.80;;;;;;6220086;23;20004;-82
2021/01/13 09:47:38;;;;;;;14.70;4.90;;;1.20;96.90;;;;;;6192672;23;20012;-81
2021/01/13 09:50:07;;;;;;;9.15;4.93;;;1.20;97.00;;;;;;6191477;23;20016;-81
2021/01/13 09:52:42;;;;;;;13.82;7.88;;;1.20;97.70;;;;;;6196697;23;20000;-81
2021/01/13 09:55:09;;;;;;;14.63;7.75;;;1.20;98.40;;;;;;6228543;23;20008;-81
2021/01/13 09:57:36;;;;;;;11.82;4.75;;;1.40;97.70;;;;;;6190619;23;20036;-81
2021/01/13 10:00:12;;;;;;;10.43;4.95;;;1.50;96.60;;;;;;6219907;23;20054;-81
2021/01/13 10:02:40;;;;;;;7.93;4.45;;;2.10;99.90;;;;;;6217028;23;20001;-81
2021/01/13 10:05:07;;;;;;;15.60;4.80;;;2.10;94.60;;;;;;6218019;23;20000;-81
2021/01/13 10:07:35;;;;;;;8.55;4.45;;;1.80;93.60;;;;;;6190509;23;20009;-81
2021/01/13 10:10:07;;;;;;;8.77;4.20;;;1.60;94.90;;;;;;6194599;23;20295;-81
2021/01/13 10:12:46;;;;;;;5.23;3.43;;;1.50;95.50;;;;;;6221083;23;20055;-81
2021/01/13 10:15:33;;;;;;;12.20;4.78;;;1.40;96.10;;;;;;6190189;23;20005;-81
2021/01/13 10:18:03;;;;;;;7.85;4.47;;;1.50;96.70;;;;;;6192942;23;20009;-81
2021/01/13 10:20:29;;;;;;;8.60;4.50;;;1.60;96.20;;;;;;6220356;23;20008;-81
2021/01/13 10:22:59;;;;;;;9.70;4.53;;;1.70;95.50;;;;;;6190188;23;20437;-81
2021/01/13 10:25:30;;;;;;;10.00;3.58;;;1.80;95.20;;;;;;6218164;23;20000;-81
2021/01/13 10:27:58;;;;;;;8.00;4.45;;;1.80;95.30;;;;;;6218382;23;20425;-81
2021/01/13 10:30:26;;;;;;;14.30;4.47;;;1.90;95.40;;;;;;6218114;23;20250;-81
2021/01/13 10:32:57;;;;;;;9.27;4.25;;;1.90;95.10;;;;;;6216733;23;20001;-81
2021/01/13 10:35:35;;;;;;;10.73;3.97;;;1.90;94.70;;;;;;6168602;23;20031;-81
2021/01/13 10:38:01;;;;;;;8.27;4.10;;;1.90;93.80;;;;;;6217716;23;20016;-81
2021/01/13 10:40:27;;;;;;;8.10;3.67;;;1.90;93.70;;;;;;6218682;23;20024;-81
2021/01/13 10:42:55;;;;;;;7.65;3.85;;;1.90;93.80;;;;;;6191088;23;20004;-81
2021/01/13 10:45:22;;;;;;;6.32;3.50;;;1.90;93.10;;;;;;6217518;23;20448;-81
2021/01/13 10:48:02;;;;;;;11.55;4.03;;;1.90;93.20;;;;;;6190622;23;20083;-80
2021/01/13 10:50:32;;;;;;;13.15;4.03;;;2.00;93.40;;;;;;6191587;23;20079;-81
2021/01/13 10:53:00;;;;;;;7.50;3.17;;;2.00;93.10;;;;;;6191314;23;20000;-80
2021/01/13 10:55:28;;;;;;;9.25;4.13;;;2.10;92.70;;;;;;6191430;23;20433;-81
2021/01/13 10:57:55;;;;;;;7.10;3.58;;;2.40;99.90;;;;;;6191421;23;20023;-80
2021/01/13 11:00:30;;;;;;;11.90;3.80;;;2.40;99.10;;;;;;6217788;23;20040;-80
2021/01/13 11:02:58;;;;;;;10.35;3.35;;;2.50;98.30;;;;;;6190577;23;20005;-80
2021/01/13 11:05:25;;;;;;;5.30;2.83;;;2.60;98.20;;;;;;6191182;23;20454;-81
2021/01/13 11:07:53;;;;;;;5.60;3.55;;;2.40;97.40;;;;;;6189152;23;20004;-79
2021/01/13 11:10:21;;;;;;;10.13;3.13;;;2.40;91.20;;;;;;6190762;23;20028;-80
2021/01/13 11:12:48;;;;;;;9.45;2.88;;;2.50;90.60;;;;;;6190932;23;20397;-80
2021/01/13 11:15:14;;;;;;;4.78;2.83;;;2.70;90.50;;;;;;6190647;23;20024;-81
2021/01/13 11:17:43;;;;;;;5.43;3.08;;;2.70;90.50;;;;;;6223327;23;20008;-82
2021/01/13 11:20:09;;;;;;;8.80;3.20;;;2.50;89.90;;;;;;6202002;23;20001;-82
2021/01/13 11:22:45;;;;;;;5.22;2.60;;;2.40;88.70;;;;;;6200856;23;20020;-82
2021/01/13 11:25:36;;;;;;;12.50;3.50;;;2.40;87.90;;;;;;6202152;23;20087;-82
2021/01/13 11:28:04;;;;;;;6.90;2.97;;;2.40;87.70;;;;;;6226140;23;20428;-82
2021/01/13 11:30:47;;;;;;;8.32;3.55;;;2.30;92.10;;;;;;6191144;23;20253;-82
2021/01/13 11:33:14;;;;;;;5.25;3.13;;;2.40;92.90;;;;;;6193167;23;20008;-82
2021/01/13 11:35:49;;;;;;;8.70;2.78;;;2.50;93.30;;;;;;6217018;23;20069;-83
2021/01/13 11:38:33;;;;;;;4.50;2.47;;;2.50;87.70;;;;;;6191958;23;20008;-83
2021/01/13 11:41:17;;;;;;;5.32;2.20;;;2.60;84.80;;;;;;6191322;23;20058;-83
2021/01/13 11:44:11;;;;;;;9.20;2.33;;;2.50;84.60;;;;;;6215273;23;20005;-81
2021/01/13 11:46:56;;;;;;;4.88;2.22;;;2.40;84.60;;;;;;6192057;23;20467;-81
2021/01/13 11:49:27;;;;;;;3.50;2.40;;;2.50;85.20;;;;;;6189554;23;20459;-83
2021/01/13 11:52:09;;;;;;;8.63;2.90;;;2.60;84.80;;;;;;6191730;23;20031;-83
2021/01/13 11:54:43;;;;;;;6.65;2.30;;;2.70;83.30;;;;;;6190884;23;20075;-83
2021/01/13 11:57:24;;;;;;;6.60;2.17;;;2.80;83.30;;;;;;6188759;23;20015;-83
2021/01/13 12:00:16;;;;;;;6.15;2.05;;;2.90;81.50;;;;;;6190916;23;20004;-82
2021/01/13 12:02:54;;;;;;;6.15;2.30;;;3.10;81.20;;;;;;6222291;23;20028;-79
2021/01/13 12:05:54;;;;;;;3.70;2.20;;;3.10;80.60;;;;;;6189410;23;20507;-79
2021/01/13 12:08:41;;;;;;;5.43;2.15;;;3.10;80.50;;;;;;6218427;23;20048;-80
2021/01/13 12:11:11;;;;;;;4.70;2.00;;;3.30;84.60;;;;;;6190737;23;20065;-81
2021/01/13 12:13:56;;;;;;;4.38;2.20;;;2.80;80.90;;;;;;6200837;23;20001;-80
2021/01/13 12:16:22;;;;;;;5.65;1.80;;;;;;;;;;6216965;23;20101;-79
2021/01/13 12:18:51;;;;;;;6.22;1.75;;;2.70;79.20;;;;;;6226268;23;20005;-79
2021/01/13 12:21:23;;;;;;;4.22;1.70;;;2.70;78.60;;;;;;6194592;23;20012;-80
2021/01/13 12:23:53;;;;;;;15.77;4.88;;;2.70;78.80;;;;;;6216488;23;20004;-80
2021/01/13 12:26:35;;;;;;;7.28;1.83;;;2.60;77.70;;;;;;6215854;23;20023;-80
2021/01/13 12:29:21;;;;;;;4.55;1.63;;;2.40;77.90;;;;;;6211868;23;20001;-79
2021/01/13 12:31:48;;;;;;;6.68;1.52;;;2.30;78.00;;;;;;6217042;23;20008;-80
2021/01/13 12:34:24;;;;;;;3.83;1.58;;;2.20;78.70;;;;;;6222060;23;20000;-79
2021/01/13 12:36:52;;;;;;;3.58;1.02;;;2.30;87.20;;;;;;6195708;23;20023;-79
2021/01/13 12:39:27;;;;;;;6.03;1.63;;;2.30;83.70;;;;;;6216408;23;20478;-80
2021/01/13 12:41:55;;;;;;;7.43;1.60;;;2.50;83.30;;;;;;6215966;23;20008;-80
2021/01/13 12:44:22;;;;;;;2.97;1.17;;;2.80;76.20;;;;;;6216402;23;20075;-81
2021/01/13 12:47:21;;;;;;;4.82;1.60;;;3.50;73.90;;;;;;6216250;23;20083;-79
2021/01/13 12:49:47;;;;;;;3.78;1.40;;;4.10;70.50;;;;;;6191364;23;20028;-79
2021/01/13 12:52:12;;;;;;;3.92;1.10;;;4.00;70.00;;;;;;6192742;23;19997;-79
2021/01/13 12:54:38;;;;;;;2.42;1.13;;;4.10;68.90;;;;;;6216569;23;20008;-79
2021/01/13 12:57:04;;;;;;;2.25;1.30;;;4.30;69.10;;;;;;6217919;23;20000;-80
2021/01/13 12:59:30;;;;;;;6.05;1.55;;;;;;;;;;6216855;23;20075;-80
2021/01/13 13:01:56;;;;;;;4.30;1.60;;;5.00;69.30;;;;;;6218129;23;20027;-81
2021/01/13 13:04:21;;;;;;;2.97;1.23;;;5.20;64.90;;;;;;6216346;23;20421;-80
2021/01/13 13:06:47;;;;;;;3.53;1.35;;;5.00;66.10;;;;;;6216253;23;20024;-80
2021/01/13 13:09:15;;;;;;;6.35;1.50;;;4.60;67.70;;;;;;6215217;23;20001;-80
2021/01/13 13:11:41;;;;;;;3.80;1.63;;;4.30;68.60;;;;;;6215926;23;20467;-80
2021/01/13 13:14:13;;;;;;;2.90;1.63;;;3.90;70.70;;;;;;6215221;23;19996;-80
2021/01/13 13:16:43;;;;;;;3.95;1.67;;;3.50;72.80;;;;;;6189198;23;20015;-80
2021/01/13 13:19:09;;;;;;;6.50;1.52;;;3.40;74.40;;;;;;6216977;23;20364;-81
2021/01/13 13:21:35;;;;;;;4.93;1.77;;;3.20;75.30;;;;;;6191536;23;20108;-81
2021/01/13 13:24:01;;;;;;;3.28;1.67;;;3.00;87.10;;;;;;6217025;23;20050;-80
2021/01/13 13:26:26;;;;;;;2.05;1.50;;;2.80;78.70;;;;;;6217390;23;20000;-80
2021/01/13 13:28:52;;;;;;;5.07;2.00;;;2.80;78.90;;;;;;6217519;23;20001;-80